createdAt,value
2022-11-06T00:04:54.276Z,6.20
2022-11-06T00:09:56.088Z,6.20
2022-11-06T00:14:58.845Z,6.20
2022-11-06T00:20:00.586Z,6.30
2022-11-06T00:25:03.304Z,6.10
2022-11-06T00:30:07.122Z,6.20
2022-11-06T00:35:08.922Z,6.20
2022-11-06T00:40:12.115Z,6.20
2022-11-06T00:45:13.921Z,6.30
2022-11-06T00:50:16.266Z,6.30
2022-11-06T00:55:17.996Z,6.30
2022-11-06T01:00:20.865Z,6.30
2022-11-06T01:05:22.657Z,6.40
2022-11-06T01:10:24.703Z,6.40
2022-11-06T01:15:26.477Z,6.40
2022-11-06T01:20:28.296Z,6.50
2022-11-06T01:25:30.661Z,6.50
2022-11-06T01:30:35.845Z,6.50
2022-11-06T01:35:47.846Z,6.50
2022-11-06T01:40:49.829Z,6.60
2022-11-06T01:45:53.533Z,6.60
2022-11-06T01:50:58.785Z,6.60
2022-11-06T01:56:05.891Z,6.70
2022-11-06T02:01:08.214Z,6.70
2022-11-06T02:06:10.830Z,6.70
2022-11-06T02:11:12.660Z,6.70
2022-11-06T02:16:28.682Z,6.80
2022-11-06T02:21:39.280Z,6.80
2022-11-06T02:27:11.607Z,6.80
2022-11-06T02:32:31.350Z,6.80
2022-11-06T02:37:37.030Z,6.80
2022-11-06T02:42:43.273Z,6.80
2022-11-06T02:47:48.979Z,6.90
2022-11-06T02:52:52.522Z,6.90
2022-11-06T02:58:01.032Z,6.90
2022-11-06T03:03:32.977Z,6.90
2022-11-06T03:08:50.107Z,7.00
2022-11-06T03:13:58.619Z,7.00
2022-11-06T03:19:12.716Z,7.00
2022-11-06T03:24:29.805Z,7.10
2022-11-06T03:29:43.620Z,7.10
2022-11-06T03:34:52.548Z,7.10
2022-11-06T03:39:57.936Z,7.10
2022-11-06T03:45:18.275Z,7.20
2022-11-06T03:50:26.329Z,7.20
2022-11-06T03:55:51.577Z,7.20
2022-11-06T04:00:55.486Z,7.20
2022-11-06T04:06:04.424Z,7.20
2022-11-06T04:11:27.153Z,7.30
2022-11-06T04:16:43.751Z,7.30
2022-11-06T04:22:06.725Z,7.30
2022-11-06T04:27:38.862Z,7.30
2022-11-06T04:33:00.481Z,7.40
2022-11-06T04:38:12.915Z,7.30
2022-11-06T04:43:38.664Z,7.40
2022-11-06T04:48:41.804Z,7.40
2022-11-06T04:53:44.123Z,7.40
2022-11-06T04:58:45.846Z,7.40
2022-11-06T05:03:47.782Z,7.40
2022-11-06T05:08:49.532Z,7.40
2022-11-06T05:13:51.332Z,7.40
2022-11-06T05:18:53.080Z,7.40
2022-11-06T05:23:54.789Z,7.40
2022-11-06T05:28:56.536Z,7.40
2022-11-06T05:33:58.280Z,7.50
2022-11-06T05:39:00.048Z,7.40
2022-11-06T05:44:03.109Z,7.50
2022-11-06T05:49:04.989Z,7.50
2022-11-06T05:54:06.710Z,7.50
2022-11-06T05:59:09.338Z,7.50
2022-11-06T06:04:11.062Z,7.50
2022-11-06T06:09:12.941Z,7.50
2022-11-06T06:14:15.783Z,7.50
2022-11-06T06:19:17.518Z,7.50
2022-11-06T06:24:19.366Z,7.60
2022-11-06T06:29:21.162Z,7.60
2022-11-06T06:34:23.045Z,7.60
2022-11-06T06:39:24.816Z,7.60
2022-11-06T06:44:26.655Z,7.60
2022-11-06T06:49:28.411Z,7.60
2022-11-06T06:54:30.145Z,7.60
2022-11-06T06:59:31.996Z,7.60
2022-11-06T07:04:33.777Z,7.70
2022-11-06T07:09:35.573Z,7.70
2022-11-06T07:14:37.269Z,7.80
2022-11-06T07:19:39.105Z,7.80
2022-11-06T07:24:40.900Z,7.80
2022-11-06T07:29:42.663Z,7.90
2022-11-06T07:34:44.435Z,7.90
2022-11-06T07:39:46.249Z,7.90
2022-11-06T07:44:48.158Z,8.00
2022-11-06T07:49:51.221Z,8.10
2022-11-06T07:54:53.290Z,8.10
2022-11-06T07:59:55.022Z,8.20
2022-11-06T08:04:56.942Z,8.20
2022-11-06T08:09:58.733Z,8.30
2022-11-06T08:15:00.491Z,8.30
2022-11-06T08:20:02.348Z,8.30
2022-11-06T08:25:04.392Z,8.30
2022-11-06T08:30:06.927Z,8.40
2022-11-06T08:35:09.118Z,8.50
2022-11-06T08:40:11.577Z,8.50
2022-11-06T08:45:13.614Z,8.60
2022-11-06T08:50:15.568Z,8.60
2022-11-06T08:55:17.416Z,8.70
2022-11-06T09:00:19.239Z,8.70
2022-11-06T09:05:20.987Z,8.80
2022-11-06T09:10:22.930Z,8.90
2022-11-06T09:15:24.964Z,8.90
2022-11-06T09:20:27.092Z,9.00
2022-11-06T09:25:29.842Z,9.10
2022-11-06T09:30:32.546Z,9.10
2022-11-06T09:35:35.086Z,9.10
2022-11-06T09:40:42.009Z,9.20
2022-11-06T09:45:44.513Z,9.10
2022-11-06T09:51:04.451Z,8.90
2022-11-06T09:56:10.244Z,9.00
2022-11-06T10:01:27.291Z,8.90
2022-11-06T10:06:29.684Z,9.00
2022-11-06T10:11:58.921Z,9.10
2022-11-06T10:17:38.679Z,9.10
2022-11-06T10:22:46.714Z,9.10
2022-11-06T10:28:20.287Z,9.10
2022-11-06T10:33:49.365Z,9.10
2022-11-06T10:38:52.855Z,9.10
2022-11-06T10:44:04.953Z,9.20
2022-11-06T10:49:29.757Z,9.10
2022-11-06T10:54:57.125Z,9.10
2022-11-06T10:59:59.188Z,9.00
2022-11-06T11:05:01.300Z,9.00
2022-11-06T11:10:28.246Z,9.20
2022-11-06T11:15:40.829Z,9.20
2022-11-06T11:20:48.063Z,9.30
2022-11-06T11:26:12.237Z,9.30
2022-11-06T11:31:16.369Z,9.50
2022-11-06T11:36:18.227Z,9.50
2022-11-06T11:41:19.950Z,9.50
2022-11-06T11:46:21.948Z,9.80
2022-11-06T11:51:26.677Z,9.90
2022-11-06T11:56:50.091Z,10.00
2022-11-06T12:01:52.624Z,10.30
2022-11-06T12:07:04.588Z,10.10
2022-11-06T12:12:06.760Z,10.00
2022-11-06T12:17:20.236Z,9.90
2022-11-06T12:22:28.654Z,9.80
2022-11-06T12:27:37.340Z,9.90
2022-11-06T12:32:58.905Z,9.80
2022-11-06T12:38:21.526Z,9.80
2022-11-06T12:43:49.449Z,9.80
2022-11-06T12:49:03.038Z,9.80
2022-11-06T12:54:28.951Z,9.90
2022-11-06T12:59:52.891Z,9.80
2022-11-06T13:05:15.196Z,9.90
2022-11-06T13:10:55.866Z,9.90
2022-11-06T13:16:11.840Z,9.90
2022-11-06T13:21:38.888Z,10.20
2022-11-06T13:27:01.579Z,10.20
2022-11-06T13:32:08.555Z,10.00
2022-11-06T13:37:20.744Z,9.90
2022-11-06T13:42:38.063Z,10.00
2022-11-06T13:47:48.683Z,9.90
2022-11-06T13:52:58.068Z,9.80
2022-11-06T13:58:26.339Z,9.60
2022-11-06T14:03:45.281Z,9.40
2022-11-06T14:08:59.903Z,9.10
2022-11-06T14:14:05.760Z,8.90
2022-11-06T14:19:14.939Z,8.80
2022-11-06T14:24:19.554Z,8.70
2022-11-06T14:29:27.505Z,8.70
2022-11-06T14:34:34.558Z,8.80
2022-11-06T14:39:51.779Z,8.80
2022-11-06T14:44:57.559Z,8.80
2022-11-06T14:50:12.163Z,8.80
2022-11-06T14:55:31.034Z,8.80
2022-11-06T15:00:38.721Z,8.90
2022-11-06T15:05:42.788Z,8.80
2022-11-06T15:10:44.877Z,8.80
2022-11-06T15:15:49.900Z,8.80
2022-11-06T15:21:03.105Z,8.90
2022-11-06T15:26:13.657Z,8.80
2022-11-06T15:31:19.037Z,8.80
2022-11-06T15:36:22.497Z,8.70
2022-11-06T15:41:26.498Z,8.70
2022-11-06T15:46:29.425Z,8.50
2022-11-06T15:51:31.223Z,8.60
2022-11-06T15:56:35.857Z,8.50
2022-11-06T16:01:38.357Z,8.60
2022-11-06T16:06:40.989Z,8.60
2022-11-06T16:11:44.956Z,8.50
2022-11-06T16:16:55.656Z,8.40
2022-11-06T16:22:13.292Z,8.30
2022-11-06T16:27:16.058Z,8.10
2022-11-06T16:32:23.769Z,8.00
2022-11-06T16:37:29.495Z,7.80
2022-11-06T16:42:35.216Z,7.70
2022-11-06T16:47:37.163Z,7.70
2022-11-06T16:52:40.207Z,7.50
2022-11-06T16:57:54.742Z,7.50
2022-11-06T17:03:02.597Z,7.40
2022-11-06T17:08:21.197Z,7.30
2022-11-06T17:13:32.825Z,7.30
2022-11-06T17:18:39.122Z,7.10
2022-11-06T17:23:41.412Z,7.10
2022-11-06T17:28:43.397Z,7.00
2022-11-06T17:33:45.706Z,6.90
2022-11-06T17:38:48.387Z,6.80
2022-11-06T17:43:50.235Z,6.70
2022-11-06T17:48:52.013Z,6.60
2022-11-06T17:53:53.781Z,6.50
2022-11-06T17:58:55.706Z,6.50
2022-11-06T18:03:57.722Z,6.50
2022-11-06T18:09:01.625Z,6.40
2022-11-06T18:14:04.037Z,6.20
2022-11-06T18:19:07.390Z,6.20
2022-11-06T18:24:09.195Z,6.10
2022-11-06T18:29:12.300Z,6.10
2022-11-06T18:34:20.264Z,6.00
2022-11-06T18:39:22.440Z,5.90
2022-11-06T18:44:24.658Z,5.90
2022-11-06T18:49:26.453Z,5.80
2022-11-06T18:54:29.828Z,5.70
2022-11-06T18:59:31.752Z,5.70
2022-11-06T19:04:33.532Z,5.70
2022-11-06T19:09:35.474Z,5.60
2022-11-06T19:14:37.344Z,5.40
2022-11-06T19:19:39.196Z,5.30
2022-11-06T19:24:41.597Z,5.20
2022-11-06T19:29:43.342Z,5.20
2022-11-06T19:34:45.151Z,5.10
2022-11-06T19:39:46.907Z,5.10
2022-11-06T19:44:48.713Z,5.30
2022-11-06T19:49:50.434Z,5.20
2022-11-06T19:54:52.225Z,5.00
2022-11-06T20:00:14.262Z,5.00
2022-11-06T20:05:16.187Z,5.00
2022-11-06T20:10:18.103Z,5.10
2022-11-06T20:15:23.807Z,5.00
2022-11-06T20:20:28.693Z,5.00
2022-11-06T20:25:32.422Z,5.20
2022-11-06T20:30:34.210Z,5.20
2022-11-06T20:35:37.275Z,5.30
2022-11-06T20:40:39.037Z,5.30
2022-11-06T20:45:40.912Z,5.30
2022-11-06T20:50:42.687Z,5.30
2022-11-06T20:55:46.631Z,5.60
2022-11-06T21:00:48.346Z,5.60
2022-11-06T21:05:50.087Z,5.60
2022-11-06T21:10:56.124Z,5.80
2022-11-06T21:15:58.532Z,5.80
2022-11-06T21:21:02.722Z,5.90
2022-11-06T21:26:08.845Z,5.90
2022-11-06T21:31:17.721Z,5.90
2022-11-06T21:36:22.114Z,5.90
2022-11-06T21:41:27.098Z,5.90
2022-11-06T21:46:30.603Z,5.90
2022-11-06T21:51:33.363Z,6.00
2022-11-06T21:56:35.908Z,6.00
2022-11-06T22:01:38.735Z,6.10
2022-11-06T22:06:42.208Z,6.10
2022-11-06T22:11:44.570Z,6.10
2022-11-06T22:16:47.354Z,6.20
2022-11-06T22:21:49.128Z,6.20
2022-11-06T22:26:53.810Z,6.30
2022-11-06T22:31:55.572Z,6.30
2022-11-06T22:36:57.375Z,6.30
2022-11-06T22:41:59.143Z,6.30
2022-11-06T22:47:01.145Z,6.30
2022-11-06T22:52:02.970Z,6.30
2022-11-06T22:57:04.736Z,6.40
2022-11-06T23:02:06.663Z,6.30
2022-11-06T23:07:08.509Z,6.30
2022-11-06T23:12:10.272Z,6.30
2022-11-06T23:17:12.336Z,6.30
2022-11-06T23:22:32.702Z,6.30
2022-11-06T23:27:35.259Z,6.40
2022-11-06T23:32:38.058Z,6.30
2022-11-06T23:37:40.602Z,6.30
2022-11-06T23:42:43.362Z,6.30
2022-11-06T23:47:45.299Z,6.40
2022-11-06T23:52:47.192Z,6.40
2022-11-06T23:57:49.243Z,6.40
